Time;durP1;ratioP1;P1;durP2;ratioP2;P2;SDS_P1;SDS_P2;PMS_P1;PMS_P2;Temp;Humidity;BMP_temperature;BMP_pressure;BME280_temperature;BME280_humidity;BME280_pressure;Samples;Min_cycle;Max_cycle;Signal;HPM_P1;HPM_P2
2022/06/15 00:04:35;;;;;;;0.00;0.00;;;;;;;12.24;100.00;102099.84;10368371;28;20029;-73
2022/06/15 00:09:36;;;;;;;0.00;0.00;;;;;;;12.19;100.00;102102.13;10368456;28;20367;-73
2022/06/15 00:14:36;;;;;;;0.10;0.10;;;;;;;12.21;100.00;102100.13;10368343;28;20057;-73
2022/06/15 00:19:36;;;;;;;0.10;0.10;;;;;;;12.18;100.00;102105.75;10369279;28;20030;-73
2022/06/15 00:24:37;;;;;;;0.10;0.10;;;;;;;12.18;100.00;102097.72;10361637;28;20041;-73
2022/06/15 00:29:37;;;;;;;0.10;0.10;;;;;;;12.13;100.00;102100.84;10369157;28;20062;-73
2022/06/15 00:34:38;;;;;;;0.10;0.10;;;;;;;12.13;100.00;102100.84;10368230;28;20034;-73
2022/06/15 00:39:38;;;;;;;0.10;0.10;;;;;;;12.14;100.00;102105.19;10368362;28;20030;-73
2022/06/15 00:44:42;;;;;;;0.10;0.10;;;;;;;12.11;100.00;102102.78;10367787;28;20029;-73
2022/06/15 00:50:09;;;;;;;0.07;0.07;;;;;;;12.06;100.00;102083.66;10368070;28;20030;-73
2022/06/15 00:55:16;;;;;;;0.03;0.03;;;;;;;11.98;100.00;102089.72;10365177;28;20088;-73
2022/06/15 01:00:17;;;;;;;0.10;0.10;;;;;;;11.90;100.00;102088.72;10367646;28;20489;-73
2022/06/15 01:05:26;;;;;;;0.00;0.00;;;;;;;11.81;100.00;102077.00;10366894;28;20528;-73
2022/06/15 01:10:51;;;;;;;0.00;0.00;;;;;;;11.56;100.00;102073.81;10364380;28;20030;-73
2022/06/15 01:16:30;;;;;;;0.10;0.10;;;;;;;11.32;100.00;102086.63;10366804;28;20033;-73
2022/06/15 01:21:49;;;;;;;0.10;0.10;;;;;;;11.23;100.00;102082.09;10361703;28;20109;-73
2022/06/15 01:27:14;;;;;;;0.10;0.10;;;;;;;11.24;100.00;102084.63;10365524;28;20034;-73
2022/06/15 01:32:41;;;;;;;0.10;0.10;;;;;;;11.26;100.00;102089.84;10367099;28;20041;-73
2022/06/15 01:37:58;;;;;;;0.00;0.00;;;;;;;11.30;100.00;102089.44;10366264;28;20393;-73
2022/06/15 01:43:05;;;;;;;0.00;0.00;;;;;;;11.41;100.00;102091.16;10367134;28;20033;-73
2022/06/15 01:48:09;;;;;;;0.03;0.03;;;;;;;11.43;100.00;102086.56;10365904;28;20397;-73
2022/06/15 01:53:20;;;;;;;0.10;0.10;;;;;;;11.47;100.00;102090.63;10360945;28;20038;-73
2022/06/15 01:58:25;;;;;;;0.00;0.00;;;;;;;11.51;100.00;102078.69;10353095;28;20026;-73
2022/06/15 02:03:44;;;;;;;0.00;0.00;;;;;;;11.54;100.00;102080.25;10356725;28;20053;-73
2022/06/15 02:08:57;;;;;;;0.10;0.10;;;;;;;11.63;100.00;102084.78;10366394;28;20030;-73
2022/06/15 02:14:05;;;;;;;0.10;0.10;;;;;;;11.71;100.00;102076.09;10365990;28;20034;-73
2022/06/15 02:19:09;;;;;;;0.10;0.10;;;;;;;11.86;100.00;102084.59;10367236;28;20030;-73
2022/06/15 02:24:12;;;;;;;0.10;0.10;;;;;;;11.93;100.00;102078.59;10365825;28;20037;-73
2022/06/15 02:29:17;;;;;;;0.00;0.00;;;;;;;12.00;100.00;102079.72;10358457;28;20100;-73
2022/06/15 02:34:18;;;;;;;0.10;0.10;;;;;;;11.96;100.00;102069.47;10352473;28;20065;-73
2022/06/15 02:39:19;;;;;;;0.10;0.10;;;;;;;11.87;100.00;102073.81;10369085;28;20053;-73
2022/06/15 02:44:19;;;;;;;0.10;0.10;;;;;;;11.83;100.00;102069.66;10372735;28;20527;-73
2022/06/15 02:49:20;;;;;;;0.10;0.10;;;;;;;11.82;100.00;102064.47;10372883;28;20057;-73
2022/06/15 02:54:27;;;;;;;0.08;0.08;;;;;;;11.80;100.00;102061.94;10372185;28;20551;-73
2022/06/15 02:59:27;;;;;;;0.10;0.10;;;;;;;11.81;100.00;102060.09;10368433;28;20026;-73
2022/06/15 03:04:28;;;;;;;0.00;0.00;;;;;;;11.76;100.00;102064.03;10371630;28;20033;-73
2022/06/15 03:09:28;;;;;;;0.10;0.10;;;;;;;11.77;100.00;102065.72;10371032;28;20036;-73
2022/06/15 03:14:29;;;;;;;0.10;0.10;;;;;;;11.88;100.00;102070.13;10371240;28;20495;-73
2022/06/15 03:19:29;;;;;;;0.10;0.10;;;;;;;11.98;100.00;102071.03;10371868;28;20030;-73
2022/06/15 03:24:29;;;;;;;0.10;0.10;;;;;;;12.12;100.00;102074.25;10371067;28;20060;-73
2022/06/15 03:29:31;;;;;;;0.10;0.10;;;;;;;12.04;100.00;102066.91;10367138;28;20096;-73
2022/06/15 03:34:31;;;;;;;0.10;0.10;;;;;;;11.93;100.00;102067.91;10370697;28;20064;-73
2022/06/15 03:39:31;;;;;;;0.00;0.00;;;;;;;11.93;100.00;102067.91;10370896;28;20517;-73
2022/06/15 03:44:32;;;;;;;0.10;0.10;;;;;;;12.02;100.00;102066.25;10370396;28;20413;-73
2022/06/15 03:49:32;;;;;;;0.10;0.10;;;;;;;12.10;100.00;102061.06;10370514;28;20026;-73
2022/06/15 03:54:34;;;;;;;0.10;0.10;;;;;;;12.21;100.00;102071.59;10365687;28;20096;-73
2022/06/15 03:59:34;;;;;;;0.10;0.10;;;;;;;12.24;100.00;102073.97;10353038;28;20913;-73
2022/06/15 04:04:35;;;;;;;0.10;0.10;;;;;;;12.30;100.00;102059.22;10339830;28;20030;-73
2022/06/15 04:09:35;;;;;;;0.10;0.10;;;;;;;12.43;100.00;102059.78;10364061;28;20042;-73
2022/06/15 04:14:36;;;;;;;0.10;0.10;;;;;;;12.69;100.00;102061.88;10351279;28;20049;-74
2022/06/15 04:19:37;;;;;;;0.10;0.10;;;;;;;13.44;100.00;102053.94;10388193;22;20464;-74
2022/06/15 04:24:39;;;;;;;0.00;0.00;;;;;;;15.15;100.00;102060.06;10385790;28;20037;-75
2022/06/15 04:29:39;;;;;;;0.10;0.10;;;;;;;15.17;100.00;102058.06;10393920;28;20042;-74
2022/06/15 04:34:40;;;;;;;0.10;0.10;;;;;;;16.79;100.00;102064.03;10389589;28;20033;-74
2022/06/15 04:39:40;;;;;;;0.10;0.10;;;;;;;18.60;100.00;102061.31;10400559;28;20021;-74
2022/06/15 04:44:40;;;;;;;0.00;0.00;;;;;;;19.76;95.45;102074.25;10399663;28;20070;-74
2022/06/15 04:49:41;;;;;;;0.00;0.00;;;;;;;21.05;88.77;102073.41;10387669;28;20037;-75
2022/06/15 04:54:41;;;;;;;0.10;0.10;;;;;;;21.98;82.80;102069.28;10391780;28;20296;-74
2022/06/15 04:59:42;;;;;;;0.10;0.10;;;;;;;22.79;78.61;102066.44;10390503;28;20022;-75
2022/06/15 05:04:42;;;;;;;0.10;0.10;;;;;;;23.39;75.29;102069.09;10377394;28;20018;-75
2022/06/15 05:09:47;;;;;;;0.03;0.03;;;;;;;23.72;70.57;102077.13;10380533;28;20029;-73
2022/06/15 05:14:47;;;;;;;0.10;0.10;;;;;;;23.88;69.40;102073.09;10378612;28;20504;-73
2022/06/15 05:19:48;;;;;;;0.00;0.00;;;;;;;24.27;67.70;102071.16;10393845;28;20037;-75
2022/06/15 05:24:48;;;;;;;0.10;0.10;;;;;;;25.07;66.88;102067.75;10387681;28;20040;-74
2022/06/15 05:29:48;;;;;;;0.10;0.10;;;;;;;25.47;63.37;102064.63;10381424;28;20493;-73
2022/06/15 05:34:49;;;;;;;0.10;0.10;;;;;;;25.85;57.20;102071.72;10381210;28;20572;-73
2022/06/15 05:39:49;;;;;;;0.10;0.10;;;;;;;25.64;57.62;102071.13;10379612;28;20029;-72
2022/06/15 05:44:51;;;;;;;0.10;0.10;;;;;;;26.57;53.95;102071.69;10375430;28;20025;-73
2022/06/15 05:49:51;;;;;;;0.10;0.10;;;;;;;27.13;49.28;102074.91;10383561;28;20543;-73
2022/06/15 05:54:51;;;;;;;0.00;0.00;;;;;;;26.64;51.12;102081.44;10391539;28;20323;-73
2022/06/15 05:59:54;;;;;;;0.10;0.10;;;;;;;25.84;53.69;102079.06;10379213;28;20029;-73
2022/06/15 06:04:54;;;;;;;0.10;0.10;;;;;;;26.13;54.59;102073.84;10390795;28;20030;-73
2022/06/15 06:09:54;;;;;;;0.07;0.07;;;;;;;24.62;54.49;102082.44;10377309;28;20033;-73
2022/06/15 06:14:56;;;;;;;0.10;0.10;;;;;;;23.83;58.64;102083.78;10389996;28;20041;-73
2022/06/15 06:19:56;;;;;;;0.10;0.10;;;;;;;24.34;61.03;102080.09;10382054;28;20041;-73
2022/06/15 06:24:57;;;;;;;0.00;0.00;;;;;;;24.85;57.31;102081.81;10383540;28;20036;-73
2022/06/15 06:29:57;;;;;;;0.10;0.10;;;;;;;25.14;54.28;102084.94;10389026;28;20060;-75
2022/06/15 06:34:58;;;;;;;0.10;0.10;;;;;;;25.68;56.46;102080.50;10390166;28;20261;-73
2022/06/15 06:39:58;;;;;;;0.10;0.10;;;;;;;26.16;53.53;102078.84;10382811;28;20026;-73
2022/06/15 06:44:59;;;;;;;0.10;0.10;;;;;;;26.04;52.43;102080.69;10394486;28;20083;-73
2022/06/15 06:49:59;;;;;;;0.10;0.10;;;;;;;26.13;54.32;102085.59;10389033;28;20091;-73
2022/06/15 06:54:59;;;;;;;0.10;0.10;;;;;;;26.50;49.69;102092.81;10394516;28;20030;-73
2022/06/15 06:59:59;;;;;;;0.10;0.10;;;;;;;26.22;49.22;102085.25;10389424;28;20417;-73
2022/06/15 07:05:00;;;;;;;0.10;0.10;;;;;;;26.27;49.40;102091.69;10391045;28;20492;-74
2022/06/15 07:10:00;;;;;;;0.10;0.10;;;;;;;26.59;48.26;102088.69;10388391;28;20400;-74
2022/06/15 07:15:00;;;;;;;0.00;0.00;;;;;;;27.06;48.71;102089.53;10396375;28;20026;-73
2022/06/15 07:20:01;;;;;;;0.10;0.10;;;;;;;26.44;49.69;102094.56;10383985;28;20034;-73
2022/06/15 07:25:03;;;;;;;0.10;0.10;;;;;;;26.42;51.14;102097.53;10371137;28;20034;-73
2022/06/15 07:30:06;;;;;;;0.10;0.10;;;;;;;26.25;50.40;102093.81;10379992;28;20374;-72
2022/06/15 07:35:12;;;;;;;0.10;0.10;;;;;;;26.05;52.64;102091.38;10390918;28;20400;-74
2022/06/15 07:40:14;;;;;;;0.10;0.10;;;;;;;25.59;51.20;102087.34;10387756;28;20034;-73
2022/06/15 07:45:17;;;;;;;0.10;0.10;;;;;;;25.40;53.59;102093.88;10370059;28;20113;-73
2022/06/15 07:50:17;;;;;;;0.10;0.10;;;;;;;25.19;54.51;102092.41;10377866;28;20037;-73
2022/06/15 07:55:22;;;;;;;0.00;0.00;;;;;;;25.19;53.54;102087.81;10410551;28;20029;-73
2022/06/15 08:00:23;;;;;;;0.10;0.10;;;;;;;25.63;51.80;102093.19;10385787;28;20091;-73
2022/06/15 08:05:26;;;;;;;0.00;0.00;;;;;;;26.16;52.83;102090.59;10376633;28;20034;-74
2022/06/15 08:10:27;;;;;;;0.10;0.10;;;;;;;26.44;48.29;102097.28;10376101;28;20034;-73
2022/06/15 08:15:27;;;;;;;0.10;0.10;;;;;;;26.32;52.05;102097.25;10386412;28;20022;-73
2022/06/15 08:20:36;;;;;;;0.10;0.10;;;;;;;25.97;49.59;102100.72;10382977;28;20048;-74
2022/06/15 08:25:41;;;;;;;0.10;0.10;;;;;;;26.23;48.25;102095.13;10368677;28;20053;-73
2022/06/15 08:30:42;;;;;;;0.10;0.10;;;;;;;26.02;48.68;102097.31;10410986;28;20033;-73
2022/06/15 08:35:42;;;;;;;0.10;0.10;;;;;;;25.87;48.70;102096.88;10374421;28;20026;-73
2022/06/15 08:40:56;;;;;;;0.10;0.10;;;;;;;25.57;49.34;102089.47;10373436;28;20037;-73
2022/06/15 08:46:06;;;;;;;0.10;0.10;;;;;;;25.63;47.51;102079.53;10376077;28;20030;-73
2022/06/15 08:51:41;;;;;;;0.10;0.10;;;;;;;26.02;47.16;102077.34;10389198;28;20451;-73
2022/06/15 08:56:45;;;;;;;0.10;0.10;;;;;;;24.91;48.01;102082.00;10339292;28;20121;-73
2022/06/15 09:02:03;;;;;;;0.00;0.00;;;;;;;23.91;48.80;102078.09;10375135;28;20026;-73
2022/06/15 09:07:22;;;;;;;0.00;0.00;;;;;;;23.14;53.21;102078.97;10389168;28;20025;-74
2022/06/15 09:12:49;;;;;;;0.10;0.10;;;;;;;22.89;53.76;102074.16;10380009;28;20030;-74
2022/06/15 09:17:54;;;;;;;0.10;0.10;;;;;;;22.91;54.06;102074.78;10401947;28;20034;-74
2022/06/15 09:23:08;;;;;;;0.10;0.10;;;;;;;23.33;49.53;102072.66;10388111;28;20025;-75
2022/06/15 09:28:20;;;;;;;0.00;0.00;;;;;;;23.28;48.62;102070.56;10391939;28;20056;-75
2022/06/15 09:33:32;;;;;;;0.00;0.00;;;;;;;22.56;47.19;102072.31;10366639;28;20038;-75
2022/06/15 09:38:33;;;;;;;0.00;0.00;;;;;;;22.32;51.48;102072.94;10378117;28;20477;-75
2022/06/15 09:43:55;;;;;;;0.00;0.00;;;;;;;22.30;52.27;102075.84;10396108;28;20026;-74
2022/06/15 09:49:14;;;;;;;0.00;0.00;;;;;;;22.83;53.00;102075.00;10394722;28;20056;-74
2022/06/15 09:54:37;;;;;;;0.00;0.00;;;;;;;22.70;47.20;102066.88;10374412;28;20038;-75
2022/06/15 09:59:38;;;;;;;0.10;0.10;;;;;;;22.76;49.67;102064.16;10386920;28;20053;-75
2022/06/15 10:04:38;;;;;;;0.10;0.10;;;;;;;23.53;49.84;102069.03;10406886;28;20077;-75
2022/06/15 10:09:46;;;;;;;0.00;0.00;;;;;;;22.99;47.11;102057.47;10413811;28;20468;-75
2022/06/15 10:14:51;;;;;;;0.00;0.00;;;;;;;22.74;50.55;102073.56;10414044;28;20503;-74
2022/06/15 10:19:53;;;;;;;0.00;0.00;;;;;;;23.65;48.97;102067.28;10392590;22;20488;-73
2022/06/15 10:24:57;;;;;;;0.03;0.03;;;;;;;24.08;45.85;102058.50;10372765;28;20057;-73
2022/06/15 10:30:00;;;;;;;0.10;0.10;;;;;;;24.09;44.78;102054.75;10367623;28;20045;-73
2022/06/15 10:35:03;;;;;;;0.00;0.00;;;;;;;23.84;44.23;102050.06;10372518;28;20453;-73
2022/06/15 10:40:31;;;;;;;0.10;0.10;;;;;;;23.85;48.00;102043.59;10373528;28;20151;-73
2022/06/15 10:45:42;;;;;;;0.10;0.10;;;;;;;24.15;48.23;102029.38;10371819;28;20427;-73
2022/06/15 10:50:48;;;;;;;0.00;0.00;;;;;;;24.57;47.47;102040.56;10373427;28;20030;-73
2022/06/15 11:06:52;;;;;;;0.10;0.10;;;;;;;24.40;48.97;102019.34;10372114;28;20220;-73
2022/06/15 11:11:54;;;;;;;0.00;0.00;;;;;;;24.37;44.37;102025.19;10371851;28;20053;-73
2022/06/15 11:22:34;;;;;;;0.00;0.00;;;;;;;24.08;48.33;102010.34;10372420;28;20034;-73
2022/06/15 11:27:42;;;;;;;0.10;0.10;;;;;;;24.42;49.33;102005.47;10365773;28;20034;-73
2022/06/15 11:32:48;;;;;;;0.00;0.00;;;;;;;24.76;49.40;101995.97;10369739;28;20063;-73
2022/06/15 11:38:10;;;;;;;0.00;0.00;;;;;;;24.53;44.84;101993.91;10370267;28;20504;-73
2022/06/15 11:43:16;;;;;;;0.00;0.00;;;;;;;24.15;47.58;101994.81;10367249;28;20036;-73
2022/06/15 11:48:16;;;;;;;0.00;0.00;;;;;;;24.48;49.46;101982.00;10368021;28;20037;-73
2022/06/15 11:53:40;;;;;;;0.00;0.00;;;;;;;24.22;46.79;101993.94;10370136;28;20468;-73
2022/06/15 11:58:40;;;;;;;0.10;0.10;;;;;;;24.11;51.23;101992.75;10360279;28;20041;-73
2022/06/15 12:04:25;;;;;;;0.00;0.00;;;;;;;24.34;46.46;101992.16;10369384;28;20120;-74
2022/06/15 12:09:41;;;;;;;0.00;0.00;;;;;;;23.16;48.22;101989.91;10324494;28;20575;-73
2022/06/15 12:15:20;;;;;;;0.10;0.10;;;;;;;23.06;48.25;101984.91;10360760;28;20092;-73
2022/06/15 12:20:51;;;;;;;0.10;0.10;;;;;;;23.28;47.26;101977.31;10368892;28;20069;-73
2022/06/15 12:25:58;;;;;;;0.00;0.00;;;;;;;23.19;50.32;101979.44;10343692;28;20061;-73
2022/06/15 12:31:11;;;;;;;0.00;0.00;;;;;;;23.45;51.65;101978.50;10366675;28;20072;-73
2022/06/15 12:36:18;;;;;;;0.10;0.10;;;;;;;23.88;54.34;101980.59;10367821;28;20060;-73
2022/06/15 12:46:44;;;;;;;0.00;0.00;;;;;;;24.05;48.54;101980.03;10367988;28;20029;-73
2022/06/15 12:52:00;;;;;;;0.10;0.10;;;;;;;23.55;46.27;101972.56;10367765;28;20076;-73
2022/06/15 12:57:17;;;;;;;0.10;0.10;;;;;;;23.22;48.22;101970.03;10355493;28;20038;-73
2022/06/15 13:02:32;;;;;;;0.03;0.03;;;;;;;23.34;48.35;101970.19;10365665;28;20033;-73
2022/06/15 13:07:34;;;;;;;0.00;0.00;;;;;;;23.19;48.74;101973.19;10366602;28;20033;-74
2022/06/15 13:13:10;;;;;;;;;;;;;;;23.14;47.64;101975.69;10359797;28;20494;-73
2022/06/15 13:18:12;;;;;;;0.00;0.00;;;;;;;22.92;50.25;101978.69;10333387;28;20011;-73
2022/06/15 13:23:27;;;;;;;0.00;0.00;;;;;;;23.05;50.51;101969.66;10360660;28;20030;-73
2022/06/15 13:28:40;;;;;;;0.00;0.00;;;;;;;23.09;53.95;101968.19;10356006;28;20034;-73
2022/06/15 13:33:59;;;;;;;0.10;0.10;;;;;;;23.23;52.14;101964.38;10366078;28;20033;-74
2022/06/15 13:38:59;;;;;;;0.00;0.00;;;;;;;23.07;52.36;101966.72;10366887;28;20493;-73
2022/06/15 13:44:01;;;;;;;0.00;0.00;;;;;;;22.82;48.82;101965.53;10365698;28;20038;-73
2022/06/15 13:49:30;;;;;;;0.08;0.08;;;;;;;22.84;52.36;101970.75;10366493;28;20405;-73
2022/06/15 13:54:45;;;;;;;0.00;0.00;;;;;;;22.99;51.18;101976.78;10350928;28;20405;-73
2022/06/15 14:00:03;;;;;;;0.00;0.00;;;;;;;22.92;52.07;101972.38;10365684;28;20033;-73
2022/06/15 14:05:23;;;;;;;0.00;0.00;;;;;;;22.24;51.59;101975.41;10364315;28;20084;-73
2022/06/15 14:10:32;;;;;;;0.00;0.00;;;;;;;22.11;53.05;101960.78;10366986;28;20029;-73
2022/06/15 14:15:51;;;;;;;0.00;0.00;;;;;;;22.28;52.66;101960.38;10365158;28;20045;-73
2022/06/15 14:20:52;;;;;;;0.10;0.10;;;;;;;22.21;53.30;101949.53;10366332;28;20190;-73
2022/06/15 14:25:52;;;;;;;0.00;0.00;;;;;;;21.76;53.79;101953.84;10363300;28;20034;-74
2022/06/15 14:31:07;;;;;;;0.00;0.00;;;;;;;21.80;56.20;101955.13;10365093;28;20106;-73
2022/06/15 14:36:17;;;;;;;0.00;0.00;;;;;;;21.94;53.10;101954.09;10370290;28;20112;-73
2022/06/15 14:41:20;;;;;;;0.00;0.00;;;;;;;22.04;53.43;101950.97;10373048;28;20033;-73
2022/06/15 14:46:25;;;;;;;0.10;0.10;;;;;;;22.17;53.55;101956.44;10372335;28;20030;-73
2022/06/15 14:51:28;;;;;;;0.10;0.10;;;;;;;22.12;53.85;101957.00;10368977;28;20036;-73
2022/06/15 14:56:51;;;;;;;0.00;0.00;;;;;;;21.77;53.04;101950.09;10369733;28;20034;-73
2022/06/15 15:02:06;;;;;;;0.10;0.10;;;;;;;21.78;56.11;101939.03;10356425;28;20073;-73
2022/06/15 15:12:42;;;;;;;0.00;0.00;;;;;;;21.74;55.44;101942.38;10372983;28;20026;-73
2022/06/15 15:18:11;;;;;;;0.00;0.00;;;;;;;21.43;55.13;101933.75;10371476;28;20037;-73
2022/06/15 15:23:11;;;;;;;0.00;0.00;;;;;;;21.33;56.04;101929.75;10371832;28;20088;-74
2022/06/15 15:38:52;;;;;;;0.10;0.10;;;;;;;21.21;56.96;101922.19;10373341;28;20413;-74
2022/06/15 15:43:52;;;;;;;0.00;0.00;;;;;;;21.06;55.93;101918.81;10371517;28;20034;-74
2022/06/15 15:48:52;;;;;;;0.00;0.00;;;;;;;20.99;56.41;101917.94;10373012;28;20517;-74
2022/06/15 15:53:53;;;;;;;0.00;0.00;;;;;;;20.80;56.23;101914.94;10372328;28;20038;-74
2022/06/15 15:58:53;;;;;;;0.10;0.10;;;;;;;20.69;56.97;101918.22;10341416;28;20026;-74
2022/06/15 16:03:55;;;;;;;0.00;0.00;;;;;;;20.56;55.61;101918.94;10330624;28;20065;-73
2022/06/15 16:08:56;;;;;;;0.00;0.00;;;;;;;20.40;57.48;101916.53;10330960;28;20368;-74
2022/06/15 16:13:56;;;;;;;0.10;0.10;;;;;;;20.37;56.36;101922.34;10328953;28;20125;-74
2022/06/15 16:18:56;;;;;;;0.00;0.00;;;;;;;20.39;58.84;101933.81;10386428;22;20080;-74
2022/06/15 16:23:57;;;;;;;0.00;0.00;;;;;;;20.18;55.42;101926.56;10411041;28;20076;-74
2022/06/15 16:28:58;;;;;;;0.00;0.00;;;;;;;19.90;56.63;101913.03;10402840;28;20683;-74
2022/06/15 16:33:59;;;;;;;0.00;0.00;;;;;;;19.81;57.02;101911.47;10411079;28;20045;-74
2022/06/15 16:38:59;;;;;;;0.10;0.10;;;;;;;19.78;57.38;101912.72;10411249;28;20029;-74
2022/06/15 16:44:00;;;;;;;0.10;0.10;;;;;;;19.74;57.31;101905.19;10410353;28;20033;-74
2022/06/15 16:49:00;;;;;;;0.00;0.00;;;;;;;19.61;58.32;101908.56;10411152;28;20025;-75
2022/06/15 16:54:03;;;;;;;0.00;0.00;;;;;;;19.43;58.37;101909.84;10409903;28;20056;-74
2022/06/15 16:59:10;;;;;;;0.00;0.00;;;;;;;19.36;57.59;101903.50;10401920;28;20099;-74
2022/06/15 17:04:11;;;;;;;0.10;0.10;;;;;;;19.23;59.07;101904.22;10410042;28;20048;-74
2022/06/15 17:09:12;;;;;;;0.10;0.10;;;;;;;19.12;58.56;101899.28;10410193;28;20042;-74
2022/06/15 17:14:14;;;;;;;0.08;0.08;;;;;;;18.91;60.73;101892.00;10409534;28;20577;-74
2022/06/15 17:19:15;;;;;;;0.10;0.10;;;;;;;18.76;61.35;101899.25;10408849;28;20484;-74
2022/06/15 17:24:16;;;;;;;0.00;0.00;;;;;;;18.62;61.92;101902.78;10407753;28;20045;-74
2022/06/15 17:29:20;;;;;;;0.10;0.10;;;;;;;18.49;62.85;101893.44;10407374;28;20484;-74
2022/06/15 17:34:21;;;;;;;0.10;0.10;;;;;;;18.30;62.46;101900.25;10407181;28;20033;-74
2022/06/15 17:39:22;;;;;;;0.10;0.10;;;;;;;18.14;63.17;101899.56;10406596;28;20280;-74
2022/06/15 17:44:23;;;;;;;0.10;0.10;;;;;;;17.96;65.70;101903.41;10407107;28;20064;-74
2022/06/15 17:49:23;;;;;;;0.10;0.10;;;;;;;17.79;64.46;101907.25;10407594;28;20120;-74
2022/06/15 17:54:24;;;;;;;0.10;0.10;;;;;;;17.69;64.95;101896.72;10405364;28;20041;-74
2022/06/15 17:59:24;;;;;;;0.10;0.10;;;;;;;17.61;63.41;101899.44;10405754;28;20041;-74
2022/06/15 18:04:27;;;;;;;0.10;0.10;;;;;;;17.55;64.29;101894.78;10406634;28;20061;-74
2022/06/15 18:09:27;;;;;;;0.10;0.10;;;;;;;17.45;65.25;101889.59;10410162;28;20034;-74
2022/06/15 18:14:32;;;;;;;0.00;0.00;;;;;;;17.43;65.40;101891.66;10413742;28;20037;-74
2022/06/15 18:19:37;;;;;;;0.10;0.10;;;;;;;17.44;65.46;101893.34;10378688;28;1056302;-72
2022/06/15 18:24:39;;;;;;;0.10;0.10;;;;;;;17.52;66.39;101885.19;10400555;28;20032;-72
2022/06/15 18:29:40;;;;;;;0.00;0.00;;;;;;;17.55;65.27;101892.09;10389681;28;20503;-72
2022/06/15 18:34:43;;;;;;;0.10;0.10;;;;;;;17.56;65.04;101893.75;10376283;28;20032;-72
2022/06/15 18:39:45;;;;;;;0.00;0.00;;;;;;;17.46;64.69;101891.31;10412962;28;20029;-72
2022/06/15 18:50:12;;;;;;;0.00;0.00;;;;;;;17.27;66.55;101897.97;10402770;28;20033;-72
2022/06/15 18:55:13;;;;;;;0.10;0.10;;;;;;;17.12;68.98;101891.69;10413110;28;20044;-72
2022/06/15 19:00:21;;;;;;;0.10;0.10;;;;;;;16.96;70.61;101900.69;10384087;28;20036;-72
2022/06/15 19:05:27;;;;;;;0.10;0.10;;;;;;;16.74;71.48;101889.63;10396807;28;20404;-72
2022/06/15 19:10:30;;;;;;;0.10;0.10;;;;;;;16.52;73.84;101893.03;10379808;28;20025;-73
2022/06/15 19:15:30;;;;;;;0.10;0.10;;;;;;;16.26;75.18;101887.88;10386893;28;20080;-72
2022/06/15 19:20:30;;;;;;;0.10;0.10;;;;;;;16.08;76.60;101898.84;10411991;28;20025;-72
2022/06/15 19:25:32;;;;;;;0.10;0.10;;;;;;;15.94;77.39;101894.13;10409131;28;20041;-72
2022/06/15 19:30:33;;;;;;;0.10;0.10;;;;;;;15.76;78.59;101895.16;10374687;28;20030;-72
2022/06/15 19:35:33;;;;;;;0.10;0.10;;;;;;;15.63;79.96;101902.84;10371523;28;20130;-72
2022/06/15 19:40:35;;;;;;;0.10;0.10;;;;;;;15.48;82.55;101910.72;10369799;28;20698;-72
2022/06/15 19:45:39;;;;;;;0.10;0.10;;;;;;;15.32;83.75;101913.34;10398727;28;20153;-72
2022/06/15 19:50:40;;;;;;;;;;;;;;;15.20;85.43;101915.50;10401453;28;20387;-72
2022/06/15 19:55:42;;;;;;;0.10;0.10;;;;;;;15.07;86.84;101920.50;10410224;28;20003;-72
2022/06/15 20:00:42;;;;;;;0.10;0.10;;;;;;;14.94;88.49;101912.88;10378281;28;20474;-72
2022/06/15 20:05:44;;;;;;;0.10;0.10;;;;;;;14.83;90.42;101921.22;10369556;28;20040;-72
2022/06/15 20:10:45;;;;;;;0.10;0.10;;;;;;;14.75;91.09;101932.75;10370181;28;20373;-72
2022/06/15 20:15:46;;;;;;;0.10;0.10;;;;;;;14.72;90.10;101933.09;10369521;28;20022;-72
2022/06/15 20:20:48;;;;;;;0.10;0.10;;;;;;;14.66;91.55;101933.69;10369662;28;20065;-72
2022/06/15 20:25:52;;;;;;;0.10;0.10;;;;;;;14.61;92.07;101933.34;10384242;28;20484;-72
2022/06/15 20:30:52;;;;;;;;;;;;;;;14.52;92.59;101929.78;10398294;28;20028;-72
2022/06/15 20:35:52;;;;;;;0.10;0.10;;;;;;;14.41;93.50;101928.16;10409319;28;19909;-73
2022/06/15 20:40:53;;;;;;;0.10;0.10;;;;;;;14.33;92.28;101933.47;10409854;28;20025;-72
2022/06/15 20:45:55;;;;;;;0.10;0.10;;;;;;;14.24;92.44;101942.44;10407919;28;20074;-71
2022/06/15 20:50:55;;;;;;;0.10;0.10;;;;;;;14.14;94.85;101929.16;10409338;28;20369;-71
2022/06/15 21:01:14;;;;;;;0.10;0.10;;;;;;;14.01;97.68;101921.50;10382206;28;20041;-71
2022/06/15 21:06:15;;;;;;;0.20;0.20;;;;;;;13.94;98.66;101925.78;10367406;28;20045;-72
2022/06/15 21:21:53;;;;;;;0.10;0.10;;;;;;;13.58;99.47;101941.88;10368438;28;20029;-72
2022/06/15 21:26:54;;;;;;;0.10;0.10;;;;;;;13.49;100.00;101945.44;10377011;28;20045;-72
2022/06/15 21:31:55;;;;;;;0.10;0.10;;;;;;;13.38;100.00;101943.00;10393637;28;20037;-72
2022/06/15 21:36:56;;;;;;;0.10;0.10;;;;;;;13.28;100.00;101944.88;10401837;28;20045;-71
2022/06/15 21:42:00;;;;;;;0.10;0.10;;;;;;;13.11;100.00;101944.63;10368255;28;20053;-72
2022/06/15 21:47:02;;;;;;;0.13;0.13;;;;;;;12.92;100.00;101947.41;10379775;28;20049;-72
2022/06/15 21:52:03;;;;;;;0.10;0.10;;;;;;;12.77;100.00;101951.53;10398429;28;20040;-72
2022/06/15 21:57:04;;;;;;;0.10;0.10;;;;;;;12.62;100.00;101945.81;10406320;28;20032;-71
2022/06/15 22:02:06;;;;;;;0.10;0.10;;;;;;;12.57;100.00;101950.78;10401854;28;20026;-71
2022/06/15 22:07:06;;;;;;;0.10;0.10;;;;;;;12.56;100.00;101951.75;10382451;28;20028;-71
2022/06/15 22:12:07;;;;;;;0.10;0.10;;;;;;;12.52;100.00;101948.53;10380544;28;20040;-71
2022/06/15 22:17:08;;;;;;;0.10;0.10;;;;;;;12.45;100.00;101942.91;10397066;28;20120;-71
2022/06/15 22:22:08;;;;;;;0.10;0.10;;;;;;;12.40;100.00;101944.34;10379278;28;20125;-71
2022/06/15 22:27:08;;;;;;;0.10;0.10;;;;;;;12.37;100.00;101948.13;10379529;28;20030;-72
2022/06/15 22:32:09;;;;;;;0.10;0.10;;;;;;;12.36;100.00;101950.94;10390746;28;20268;-72
2022/06/15 22:37:09;;;;;;;0.10;0.10;;;;;;;12.33;100.00;101943.22;10407743;28;20026;-72
2022/06/15 22:42:11;;;;;;;0.10;0.10;;;;;;;12.34;100.00;101950.25;10393487;28;20029;-72
2022/06/15 22:47:12;;;;;;;0.08;0.08;;;;;;;12.32;100.00;101968.25;10379172;28;20046;-71
2022/06/15 22:52:12;;;;;;;0.10;0.10;;;;;;;12.35;100.00;101981.31;10414786;28;20476;-71
2022/06/15 22:57:12;;;;;;;0.10;0.10;;;;;;;12.36;100.00;101969.63;10406868;28;20026;-72
2022/06/15 23:02:13;;;;;;;0.10;0.10;;;;;;;12.36;100.00;101958.94;10375386;28;20112;-71
2022/06/15 23:07:13;;;;;;;0.10;0.10;;;;;;;12.34;100.00;101975.16;10409310;28;20413;-72
2022/06/15 23:12:13;;;;;;;0.10;0.10;;;;;;;12.33;100.00;101967.25;10408105;28;20691;-71
2022/06/15 23:17:14;;;;;;;0.10;0.10;;;;;;;12.31;100.00;101961.22;10371664;28;20409;-71
2022/06/15 23:22:14;;;;;;;0.10;0.10;;;;;;;12.26;100.00;101976.84;10379528;28;20045;-72
2022/06/15 23:27:14;;;;;;;0.10;0.10;;;;;;;12.16;100.00;101969.69;10377016;28;20034;-72
2022/06/15 23:32:15;;;;;;;0.10;0.10;;;;;;;12.09;100.00;101978.38;10374752;28;20050;-72
2022/06/15 23:37:15;;;;;;;0.00;0.00;;;;;;;12.05;100.00;101980.50;10371709;28;20396;-72
2022/06/15 23:42:36;;;;;;;0.10;0.10;;;;;;;12.04;100.00;101973.47;10371516;28;20698;-72
2022/06/15 23:47:36;;;;;;;0.10;0.10;;;;;;;12.04;100.00;101972.63;10370733;28;20084;-72
2022/06/15 23:52:36;;;;;;;0.03;0.03;;;;;;;12.00;100.00;101977.41;10371258;28;20034;-72
2022/06/15 23:57:37;;;;;;;0.10;0.10;;;;;;;11.97;100.00;101969.69;10370278;28;20026;-73
